Time;durP1;ratioP1;P1;durP2;ratioP2;P2;SDS_P1;SDS_P2;PMS_P1;PMS_P2;Temp;Humidity;BMP_temperature;BMP_pressure;BME280_temperature;BME280_humidity;BME280_pressure;Samples;Min_cycle;Max_cycle;Signal;HPM_P1;HPM_P2
2022/08/29 00:00:36;;;;;;;15.52;5.38;;;;;;;20.46;53.61;100151.06;4952004;28;20042;-86
2022/08/29 00:03:05;;;;;;;15.13;5.40;;;;;;;20.35;55.27;100146.16;4970211;28;20538;-87
2022/08/29 00:05:36;;;;;;;12.07;4.50;;;;;;;20.35;55.09;100151.56;4985569;28;20209;-86
2022/08/29 00:08:04;;;;;;;16.50;5.43;;;;;;;20.35;54.92;100148.84;4971055;28;20046;-86
2022/08/29 00:10:32;;;;;;;18.95;6.13;;;;;;;20.38;55.44;100143.94;4985101;28;20058;-86
2022/08/29 00:12:59;;;;;;;12.80;5.30;;;;;;;20.31;56.56;100136.81;4976436;28;20042;-86
2022/08/29 00:15:26;;;;;;;15.63;4.43;;;;;;;20.29;56.04;100133.47;4951486;28;20058;-86
2022/08/29 00:17:53;;;;;;;9.65;4.40;;;;;;;20.31;54.65;100136.81;4968434;28;20062;-86
2022/08/29 00:20:23;;;;;;;16.58;5.07;;;;;;;20.24;54.35;100136.72;4983569;28;20096;-86
2022/08/29 00:23:00;;;;;;;11.43;5.55;;;;;;;20.24;54.71;100136.72;4953031;28;20049;-86
2022/08/29 00:25:27;;;;;;;15.18;5.50;;;;;;;20.25;54.86;100137.56;4964259;28;20054;-86
2022/08/29 00:27:54;;;;;;;13.50;4.70;;;;;;;20.22;54.87;100133.38;4986035;28;20050;-86
2022/08/29 00:30:22;;;;;;;13.15;4.93;;;;;;;20.13;55.21;100123.75;4985889;28;20038;-85
2022/08/29 00:32:49;;;;;;;14.27;4.50;;;;;;;20.19;54.55;100125.69;4953334;28;20046;-86
2022/08/29 00:35:23;;;;;;;11.75;4.68;;;;;;;20.02;54.69;100124.22;4997497;28;20078;-86
2022/08/29 00:37:50;;;;;;;14.52;5.47;;;;;;;20.13;54.79;100132.66;4936975;28;20046;-86
2022/08/29 00:40:23;;;;;;;12.43;4.65;;;;;;;20.05;54.96;100129.25;4968917;28;20062;-87
2022/08/29 00:42:54;;;;;;;13.23;4.07;;;;;;;19.90;54.90;100127.44;4984713;28;20042;-85
2022/08/29 00:45:21;;;;;;;28.05;6.18;;;;;;;20.07;54.87;100132.59;4967673;28;20038;-86
2022/08/29 00:47:59;;;;;;;10.07;4.10;;;;;;;19.88;55.47;100134.03;4953011;28;20057;-86
2022/08/29 00:50:39;;;;;;;16.25;5.40;;;;;;;19.95;54.12;100135.78;4985294;28;20042;-85
2022/08/29 00:53:09;;;;;;;8.88;3.92;;;;;;;20.05;54.32;100137.31;4980364;28;20054;-86
2022/08/29 00:55:39;;;;;;;12.73;5.07;;;;;;;19.99;54.35;100143.50;4998262;28;20050;-86
2022/08/29 00:58:22;;;;;;;12.77;3.85;;;;;;;19.90;52.76;100150.88;4962070;28;20656;-86
2022/08/29 01:00:48;;;;;;;12.00;5.13;;;;;;;20.04;54.20;100136.50;4961185;28;20061;-85
2022/08/29 01:03:15;;;;;;;10.68;3.75;;;;;;;19.99;53.71;100141.63;4982900;28;20080;-85
2022/08/29 01:05:42;;;;;;;10.48;4.28;;;;;;;20.05;53.92;100145.41;4967103;28;20050;-86
2022/08/29 01:08:09;;;;;;;14.63;5.45;;;;;;;19.99;53.84;100141.63;4952803;28;20043;-85
2022/08/29 01:13:23;;;;;;;10.43;4.03;;;;;;;19.91;53.54;100147.13;4970275;28;20042;-85
2022/08/29 01:15:50;;;;;;;14.75;4.38;;;;;;;19.90;54.03;100143.59;4967371;28;20046;-86
2022/08/29 01:18:16;;;;;;;14.25;4.53;;;;;;;19.89;54.29;100143.78;4968257;28;20053;-85
2022/08/29 01:21:09;;;;;;;15.27;4.53;;;;;;;19.78;53.22;100146.97;4999599;28;20054;-86
2022/08/29 01:23:48;;;;;;;15.13;4.20;;;;;;;19.85;52.12;100148.72;4937050;28;20051;-86
2022/08/29 01:26:15;;;;;;;11.43;4.25;;;;;;;20.00;53.47;100151.41;4948028;28;20046;-85
2022/08/29 01:28:45;;;;;;;14.80;4.30;;;;;;;19.93;53.41;100155.88;4983192;28;20095;-86
2022/08/29 01:31:19;;;;;;;15.57;4.53;;;;;;;19.83;53.34;100161.56;4999214;28;20066;-85
2022/08/29 01:34:06;;;;;;;16.05;5.20;;;;;;;19.75;56.32;100160.84;4977425;28;20054;-85
2022/08/29 01:36:37;;;;;;;11.98;4.55;;;;;;;19.67;56.20;100151.00;5016275;28;20486;-85
2022/08/29 01:39:05;;;;;;;15.70;4.47;;;;;;;19.71;56.28;100155.78;4978458;28;20049;-86
2022/08/29 01:41:31;;;;;;;9.60;4.40;;;;;;;19.66;56.25;100152.78;4994692;28;20038;-86
2022/08/29 01:44:48;;;;;;;10.73;5.07;;;;;;;19.40;57.49;100150.56;4968689;28;20398;-86
2022/08/29 01:47:18;;;;;;;11.90;5.45;;;;;;;19.51;57.70;100158.22;4882895;28;20810;-86
2022/08/29 01:49:45;;;;;;;12.80;4.93;;;;;;;19.45;58.29;100160.81;4967061;28;20125;-86
2022/08/29 01:56:50;;;;;;;10.63;5.15;;;;;;;19.28;59.66;100165.50;4970917;28;20035;-86
2022/08/29 01:59:20;;;;;;;13.98;5.28;;;;;;;19.32;59.60;100160.63;4998901;28;20505;-85
2022/08/29 02:01:51;;;;;;;11.93;5.47;;;;;;;19.24;59.89;100165.06;4983702;28;20121;-86
2022/08/29 02:04:18;;;;;;;12.68;5.00;;;;;;;19.33;59.37;100168.50;4993825;28;20133;-86
2022/08/29 02:06:45;;;;;;;13.75;5.80;;;;;;;19.22;60.06;100171.66;4968025;28;20042;-87
2022/08/29 02:09:11;;;;;;;10.75;4.78;;;;;;;19.22;60.50;100171.66;4963809;28;20125;-86
2022/08/29 02:11:39;;;;;;;13.48;5.82;;;;;;;19.21;60.64;100159.19;5000084;28;20054;-89
2022/08/29 02:14:06;;;;;;;13.80;5.47;;;;;;;19.14;60.83;100163.66;4936769;28;20034;-87
2022/08/29 02:16:45;;;;;;;15.15;5.25;;;;;;;19.07;60.84;100169.75;4965465;28;20093;-87
2022/08/29 02:19:12;;;;;;;17.17;5.32;;;;;;;19.16;60.50;100166.97;4950291;28;20038;-87
2022/08/29 02:21:39;;;;;;;14.63;4.47;;;;;;;19.07;60.34;100167.06;4981116;28;20050;-88
2022/08/29 02:24:07;;;;;;;10.63;4.90;;;;;;;19.09;60.50;100170.41;4952303;28;20486;-87
2022/08/29 02:27:17;;;;;;;13.73;4.90;;;;;;;18.82;60.49;100173.69;4960273;28;20039;-86
2022/08/29 02:29:43;;;;;;;15.05;5.40;;;;;;;19.03;60.09;100171.16;4933312;28;20443;-87
2022/08/29 02:32:12;;;;;;;14.15;5.00;;;;;;;19.06;59.23;100173.47;4984803;28;20493;-86
2022/08/29 02:34:42;;;;;;;14.63;5.00;;;;;;;19.08;59.15;100167.91;5000074;28;20069;-87
2022/08/29 02:37:13;;;;;;;13.27;4.72;;;;;;;19.01;59.51;100175.06;5009985;28;20483;-86
2022/08/29 02:39:39;;;;;;;14.02;5.60;;;;;;;19.02;59.50;100177.53;4984571;28;20050;-86
2022/08/29 02:42:08;;;;;;;12.93;4.95;;;;;;;18.96;59.15;100178.28;4967534;28;20042;-86
2022/08/29 02:44:35;;;;;;;20.75;4.75;;;;;;;18.98;59.25;100170.00;5013683;28;20047;-86
2022/08/29 02:47:02;;;;;;;15.65;4.80;;;;;;;18.93;59.44;100177.78;5013119;28;20383;-86
2022/08/29 02:49:29;;;;;;;11.93;4.78;;;;;;;18.91;59.31;100175.31;4982574;28;20042;-86
2022/08/29 02:51:56;;;;;;;16.90;5.85;;;;;;;18.94;59.05;100179.47;4983382;28;20510;-86
2022/08/29 02:54:23;;;;;;;9.15;3.78;;;;;;;18.93;59.36;100178.66;4967600;28;20046;-86
2022/08/29 02:56:49;;;;;;;11.52;4.10;;;;;;;18.92;59.28;100178.81;4996410;28;20039;-86
2022/08/29 02:59:16;;;;;;;10.57;4.65;;;;;;;18.82;59.56;100171.81;4967041;28;20049;-86
2022/08/29 03:01:43;;;;;;;14.02;4.65;;;;;;;18.89;59.15;100177.34;4967504;28;20046;-86
2022/08/29 03:04:10;;;;;;;13.50;4.55;;;;;;;18.92;59.42;100179.66;4978632;28;20566;-86
2022/08/29 03:06:36;;;;;;;14.93;4.85;;;;;;;18.77;60.09;100176.91;4979465;28;20053;-86
2022/08/29 03:09:03;;;;;;;10.30;4.18;;;;;;;18.73;60.10;100183.66;4967791;28;20046;-86
2022/08/29 03:11:35;;;;;;;16.08;4.57;;;;;;;18.65;60.34;100167.59;4959405;28;20163;-86
2022/08/29 03:14:02;;;;;;;14.18;5.65;;;;;;;18.74;60.56;100171.88;4963390;28;20498;-86
2022/08/29 03:16:31;;;;;;;9.48;3.90;;;;;;;18.68;60.72;100177.97;4963051;28;20403;-86
2022/08/29 03:18:58;;;;;;;15.35;4.80;;;;;;;18.76;60.47;100175.25;4982445;28;20056;-86
2022/08/29 03:21:26;;;;;;;12.60;4.50;;;;;;;18.65;61.07;100179.19;4954468;28;20080;-85
2022/08/29 03:23:55;;;;;;;10.27;4.15;;;;;;;18.62;60.75;100181.38;4942546;28;20121;-86
2022/08/29 03:26:24;;;;;;;14.20;4.70;;;;;;;18.59;61.10;100179.03;5000339;28;20046;-85
2022/08/29 03:28:51;;;;;;;8.65;4.03;;;;;;;18.62;60.78;100168.78;4965921;28;20046;-86
2022/08/29 03:31:17;;;;;;;13.02;4.55;;;;;;;18.59;61.08;100170.97;4960968;28;20043;-85
2022/08/29 03:33:44;;;;;;;10.38;4.25;;;;;;;18.56;60.93;100168.66;5001578;28;20057;-86
2022/08/29 03:36:11;;;;;;;14.85;4.50;;;;;;;18.56;61.07;100169.50;4962100;28;20501;-85
2022/08/29 03:38:45;;;;;;;10.80;4.97;;;;;;;18.44;61.47;100169.09;4951956;28;20510;-86
2022/08/29 03:41:19;;;;;;;19.48;5.72;;;;;;;18.37;61.61;100164.59;4969361;28;20524;-86
2022/08/29 03:43:46;;;;;;;14.93;4.95;;;;;;;18.50;61.58;100167.53;4960629;28;20383;-87
2022/08/29 03:46:12;;;;;;;18.98;4.90;;;;;;;18.54;61.09;100168.81;4997495;28;20046;-86
2022/08/29 03:48:39;;;;;;;13.75;4.95;;;;;;;18.49;61.03;100165.00;5002086;28;20047;-86
2022/08/29 03:51:06;;;;;;;13.40;4.78;;;;;;;18.46;61.10;100168.88;4967388;28;20105;-89
2022/08/29 03:53:33;;;;;;;20.02;4.60;;;;;;;18.55;60.46;100164.31;4983525;28;20046;-87
2022/08/29 03:56:02;;;;;;;15.02;4.72;;;;;;;18.43;60.19;100159.31;4988548;28;20053;-88
2022/08/29 03:58:30;;;;;;;9.10;3.80;;;;;;;18.49;59.59;100165.84;4968442;28;20501;-87
2022/08/29 04:00:57;;;;;;;9.32;4.40;;;;;;;18.47;59.26;100164.34;4953733;28;20070;-84
2022/08/29 04:03:24;;;;;;;12.18;3.80;;;;;;;18.53;58.56;100172.53;5002224;28;20050;-85
2022/08/29 04:05:57;;;;;;;11.07;4.88;;;;;;;18.43;58.96;100169.25;4994871;28;20101;-88
2022/08/29 04:08:24;;;;;;;15.32;4.43;;;;;;;18.44;58.82;100168.22;4987632;28;20058;-84
2022/08/29 04:10:51;;;;;;;7.53;3.90;;;;;;;18.42;58.97;100171.09;4972958;28;20383;-88
2022/08/29 04:13:18;;;;;;;16.52;5.43;;;;;;;18.41;59.17;100174.78;4996295;28;21009;-87
2022/08/29 04:15:44;;;;;;;13.23;4.57;;;;;;;18.35;59.93;100166.63;4984355;28;20049;-88
2022/08/29 04:18:11;;;;;;;12.43;4.75;;;;;;;18.33;59.80;100172.16;4984694;28;20073;-86
2022/08/29 04:21:08;;;;;;;10.57;4.10;;;;;;;17.94;60.62;100180.28;4999806;28;20129;-85
2022/08/29 04:23:38;;;;;;;11.32;4.57;;;;;;;18.19;60.84;100179.16;4953153;28;20059;-86
2022/08/29 04:26:17;;;;;;;13.57;4.95;;;;;;;18.07;61.83;100180.56;5014859;28;20523;-83
2022/08/29 04:29:03;;;;;;;8.75;5.18;;;;;;;18.16;61.55;100184.03;4967160;28;20043;-84
2022/08/29 04:31:30;;;;;;;15.18;5.15;;;;;;;18.26;61.92;100189.19;4943553;28;20047;-84
2022/08/29 04:33:57;;;;;;;10.57;5.35;;;;;;;18.20;62.58;100188.03;4983880;28;20057;-82
2022/08/29 04:40:14;;;;;;;16.35;5.53;;;;;;;18.13;62.67;100189.75;4941526;28;20053;-83
2022/08/29 04:43:08;;;;;;;13.57;4.95;;;;;;;17.78;63.97;100190.06;4963505;28;20043;-84
2022/08/29 04:45:35;;;;;;;12.27;4.65;;;;;;;18.07;62.89;100193.16;4926907;28;20070;-85
2022/08/29 04:48:02;;;;;;;10.05;5.20;;;;;;;18.08;62.66;100197.50;4995633;28;20490;-84
2022/08/29 04:50:29;;;;;;;9.57;5.10;;;;;;;18.09;62.64;100201.88;4975604;28;20449;-84
2022/08/29 04:52:56;;;;;;;10.35;5.15;;;;;;;18.05;62.85;100203.25;4985865;28;20046;-83
2022/08/29 04:55:23;;;;;;;11.70;4.78;;;;;;;18.15;62.58;100202.00;4985547;28;20038;-84
2022/08/29 04:57:52;;;;;;;11.60;4.78;;;;;;;18.11;62.77;100206.03;4999388;28;21790;-84
2022/08/29 05:00:21;;;;;;;11.45;4.15;;;;;;;18.17;62.97;100204.53;4984241;28;20077;-83
2022/08/29 05:02:48;;;;;;;12.75;5.57;;;;;;;18.21;62.74;100208.53;4945333;28;20047;-84
2022/08/29 05:05:16;;;;;;;11.30;5.32;;;;;;;18.18;62.58;100208.88;4966349;28;20525;-83
2022/08/29 05:07:47;;;;;;;11.57;5.57;;;;;;;18.04;63.07;100193.50;4984834;28;20048;-84
2022/08/29 05:10:16;;;;;;;13.10;5.32;;;;;;;18.13;63.09;100203.19;4963798;28;20089;-84
2022/08/29 05:12:44;;;;;;;12.23;5.03;;;;;;;18.22;63.00;100212.91;4953103;28;20494;-84
2022/08/29 05:15:12;;;;;;;14.95;5.65;;;;;;;18.21;63.56;100205.84;4984379;28;20047;-84
2022/08/29 05:17:39;;;;;;;11.80;6.32;;;;;;;18.27;63.44;100204.28;5000718;28;20053;-84
2022/08/29 05:20:07;;;;;;;12.77;5.72;;;;;;;18.28;63.36;100205.97;4948638;28;20038;-83
2022/08/29 05:22:34;;;;;;;17.60;6.18;;;;;;;18.23;63.30;100203.81;4969307;28;20502;-84
2022/08/29 05:25:02;;;;;;;14.50;5.55;;;;;;;18.19;63.02;100206.03;4982468;28;20398;-84
2022/08/29 05:27:28;;;;;;;17.40;6.53;;;;;;;18.28;61.91;100214.03;4935614;28;20104;-84
2022/08/29 05:29:57;;;;;;;12.63;5.38;;;;;;;18.35;62.02;100209.66;4982902;28;20053;-84
2022/08/29 05:32:24;;;;;;;12.15;5.45;;;;;;;18.49;60.81;100216.09;4986564;28;20043;-83
2022/08/29 05:34:51;;;;;;;17.75;5.28;;;;;;;18.55;61.34;100218.94;4967859;28;20121;-84
2022/08/29 05:37:19;;;;;;;12.23;6.05;;;;;;;18.50;61.39;100213.25;5015221;28;20047;-83
2022/08/29 05:39:47;;;;;;;14.50;4.90;;;;;;;18.74;59.43;100217.59;4967617;28;20050;-84
2022/08/29 05:42:16;;;;;;;17.40;4.15;;;;;;;18.80;57.88;100218.75;4983873;28;20133;-83
2022/08/29 05:44:42;;;;;;;12.18;5.22;;;;;;;18.85;59.77;100229.81;4961805;28;20050;-83
2022/08/29 05:47:11;;;;;;;13.60;5.35;;;;;;;18.80;60.14;100232.22;4961336;28;20487;-83
2022/08/29 05:49:41;;;;;;;14.90;5.40;;;;;;;18.78;60.33;100232.41;4999788;28;20046;-83
2022/08/29 05:52:09;;;;;;;12.90;4.80;;;;;;;18.86;59.73;100223.44;4963726;28;20050;-84
2022/08/29 05:54:37;;;;;;;13.02;5.43;;;;;;;18.93;59.62;100232.47;4948930;28;20062;-84
2022/08/29 05:57:06;;;;;;;14.93;5.45;;;;;;;18.90;60.25;100227.44;4998374;28;20462;-83
2022/08/29 05:59:34;;;;;;;17.58;4.55;;;;;;;18.98;58.83;100237.28;4948351;28;20053;-84
2022/08/29 06:02:01;;;;;;;9.13;4.28;;;;;;;19.08;57.49;100233.34;4982479;28;20053;-87
2022/08/29 06:04:30;;;;;;;13.98;4.82;;;;;;;19.16;56.46;100232.44;4951987;28;20402;-87
2022/08/29 06:06:56;;;;;;;15.10;4.57;;;;;;;19.17;56.82;100234.13;4999023;28;20049;-86
2022/08/29 06:09:23;;;;;;;15.65;4.75;;;;;;;19.21;57.59;100232.75;4948687;28;20097;-86
2022/08/29 06:11:51;;;;;;;15.80;4.30;;;;;;;19.27;56.02;100228.47;4967895;28;20125;-87
2022/08/29 06:14:19;;;;;;;8.05;3.55;;;;;;;19.29;55.07;100229.97;4952452;28;20515;-87
2022/08/29 06:16:46;;;;;;;10.75;3.50;;;;;;;19.37;54.33;100239.00;4998762;28;20043;-87
2022/08/29 06:19:12;;;;;;;9.68;3.88;;;;;;;19.38;53.77;100237.97;4983492;28;20490;-87
2022/08/29 06:21:39;;;;;;;9.93;3.85;;;;;;;19.29;53.86;100240.72;4967945;28;20049;-86
2022/08/29 06:24:06;;;;;;;11.32;4.30;;;;;;;19.31;53.48;100248.66;4966572;28;20101;-86
2022/08/29 06:26:33;;;;;;;11.82;4.13;;;;;;;19.20;53.22;100254.44;4998836;28;20521;-87
2022/08/29 06:29:04;;;;;;;15.00;4.10;;;;;;;19.21;52.78;100240.81;4966645;28;20094;-86
2022/08/29 06:31:31;;;;;;;11.55;4.38;;;;;;;19.25;53.50;100244.81;4985838;28;20050;-87
2022/08/29 06:34:24;;;;;;;18.80;4.38;;;;;;;19.19;53.36;100245.53;4999014;28;20050;-86
2022/08/29 06:36:50;;;;;;;14.25;5.10;;;;;;;19.51;53.72;100244.41;4921050;28;20108;-87
2022/08/29 06:39:22;;;;;;;16.55;4.68;;;;;;;19.46;52.54;100240.56;4982029;28;22711;-86
2022/08/29 06:41:49;;;;;;;16.58;4.20;;;;;;;19.56;52.94;100235.75;4978953;28;20053;-87
2022/08/29 06:44:17;;;;;;;9.00;3.80;;;;;;;19.57;53.14;100242.00;5013707;28;20405;-87
2022/08/29 06:46:48;;;;;;;12.63;4.05;;;;;;;19.60;52.36;100238.94;4999150;28;20047;-88
2022/08/29 06:49:16;;;;;;;10.30;3.53;;;;;;;19.63;52.92;100242.06;4983744;28;20991;-87
2022/08/29 06:51:47;;;;;;;16.30;4.88;;;;;;;19.62;52.84;100242.28;4978596;28;20053;-88
2022/08/29 06:54:15;;;;;;;11.43;4.30;;;;;;;19.66;53.11;100246.25;4979262;28;20046;-88
2022/08/29 06:56:42;;;;;;;12.20;3.88;;;;;;;19.73;52.79;100242.66;4983735;28;20042;-86
2022/08/29 06:59:10;;;;;;;16.58;4.63;;;;;;;19.69;52.71;100251.31;4979166;28;20216;-90
2022/08/29 07:01:38;;;;;;;13.15;3.70;;;;;;;19.76;52.43;100252.25;4996779;28;20402;-89
2022/08/29 07:04:06;;;;;;;11.27;3.70;;;;;;;19.76;52.83;100254.94;4994338;28;20047;-87
2022/08/29 07:06:40;;;;;;;17.10;4.90;;;;;;;19.82;52.81;100254.22;4967600;28;20118;-87
2022/08/29 07:09:07;;;;;;;13.45;3.95;;;;;;;19.82;52.70;100253.34;4985516;28;20045;-86
2022/08/29 07:11:37;;;;;;;14.35;4.25;;;;;;;19.91;52.38;100255.78;4999237;28;20050;-86
2022/08/29 07:14:06;;;;;;;11.68;3.90;;;;;;;19.87;52.80;100265.25;4985962;28;20038;-86
2022/08/29 07:16:34;;;;;;;17.33;4.68;;;;;;;19.83;52.62;100257.72;4971500;28;20415;-87
2022/08/29 07:19:04;;;;;;;13.45;3.50;;;;;;;19.90;52.87;100258.66;4984428;28;20041;-87
2022/08/29 07:21:31;;;;;;;13.88;4.30;;;;;;;19.87;52.45;100251.78;4961620;28;20042;-87
2022/08/29 07:23:57;;;;;;;13.18;4.25;;;;;;;19.94;52.75;100259.94;4985930;28;20069;-87
2022/08/29 07:26:31;;;;;;;11.88;4.45;;;;;;;19.99;52.76;100257.53;4964065;28;20038;-87
2022/08/29 07:29:00;;;;;;;15.98;4.07;;;;;;;20.07;53.42;100256.59;4969601;28;20038;-87
2022/08/29 07:31:29;;;;;;;12.43;4.22;;;;;;;20.02;52.91;100261.72;4971690;28;20050;-85
2022/08/29 07:33:58;;;;;;;17.02;4.28;;;;;;;20.08;52.88;100258.28;4952937;28;20081;-86
2022/08/29 07:36:30;;;;;;;14.57;4.60;;;;;;;20.12;52.74;100263.13;4970076;28;20125;-87
2022/08/29 07:38:56;;;;;;;11.88;4.63;;;;;;;20.21;52.96;100263.00;4967003;28;20265;-86
2022/08/29 07:41:24;;;;;;;13.20;4.88;;;;;;;20.24;52.87;100266.16;4970994;28;20042;-89
2022/08/29 07:43:50;;;;;;;14.25;5.15;;;;;;;20.30;53.35;100256.47;4969284;28;20043;-87
2022/08/29 07:46:18;;;;;;;13.82;4.53;;;;;;;20.36;53.80;100261.97;4984504;28;20081;-88
2022/08/29 07:48:45;;;;;;;17.00;4.78;;;;;;;20.40;53.25;100262.41;4968260;28;20061;-87
2022/08/29 07:51:17;;;;;;;19.02;4.28;;;;;;;20.39;53.54;100260.75;4965497;28;20122;-86
2022/08/29 07:53:45;;;;;;;14.98;4.55;;;;;;;20.46;53.54;100261.66;4985191;28;20082;-87
2022/08/29 07:56:15;;;;;;;16.38;5.10;;;;;;;20.44;53.94;100261.00;4986775;28;20459;-89
2022/08/29 07:58:42;;;;;;;15.55;4.97;;;;;;;20.47;53.42;100257.94;5001279;28;20406;-87
2022/08/29 08:01:09;;;;;;;13.57;4.55;;;;;;;20.51;53.71;100267.31;4949270;28;20046;-87
2022/08/29 08:03:47;;;;;;;12.70;5.03;;;;;;;20.55;53.25;100265.09;4952387;28;20047;-86
2022/08/29 08:06:14;;;;;;;11.82;4.63;;;;;;;20.57;53.81;100258.50;4969084;28;20054;-87
2022/08/29 08:08:40;;;;;;;16.20;6.10;;;;;;;20.56;53.83;100259.53;4998267;28;20043;-87
2022/08/29 08:11:08;;;;;;;15.68;5.55;;;;;;;20.62;54.03;100260.63;5004855;28;20042;-87
2022/08/29 08:13:35;;;;;;;12.43;5.47;;;;;;;20.65;54.05;100270.19;4968556;28;20498;-87
2022/08/29 08:16:04;;;;;;;12.40;5.38;;;;;;;20.65;54.07;100275.59;4970508;28;20054;-87
2022/08/29 08:18:32;;;;;;;18.98;5.25;;;;;;;20.71;54.30;100256.78;4998930;28;20053;-86
2022/08/29 08:21:02;;;;;;;15.70;5.68;;;;;;;20.75;54.39;100255.34;5008688;28;20181;-86
2022/08/29 08:23:29;;;;;;;12.90;5.57;;;;;;;20.79;54.26;100253.97;4954174;28;20049;-86
2022/08/29 08:25:55;;;;;;;18.00;5.93;;;;;;;20.88;54.31;100254.66;4987198;28;20042;-87
2022/08/29 08:28:22;;;;;;;14.85;5.70;;;;;;;20.85;54.49;100259.63;5000741;28;20386;-87
2022/08/29 08:30:49;;;;;;;20.80;6.45;;;;;;;20.94;53.70;100262.00;5003300;28;20053;-86
2022/08/29 08:33:16;;;;;;;15.93;5.75;;;;;;;20.89;54.11;100250.94;4985538;28;20490;-88
2022/08/29 08:35:43;;;;;;;13.02;6.35;;;;;;;20.93;54.29;100256.78;4968854;28;20479;-86
2022/08/29 08:38:12;;;;;;;16.40;6.43;;;;;;;20.96;54.48;100251.00;4964307;28;20107;-86
2022/08/29 08:40:46;;;;;;;13.65;6.68;;;;;;;20.95;54.33;100254.72;4996121;28;20081;-87
2022/08/29 08:43:16;;;;;;;13.30;5.55;;;;;;;20.99;54.37;100247.94;4970923;28;20065;-86
2022/08/29 08:45:54;;;;;;;16.38;5.97;;;;;;;21.07;54.79;100253.19;4919226;28;20055;-86
2022/08/29 08:48:23;;;;;;;17.65;6.93;;;;;;;21.06;54.68;100265.00;4999848;28;20050;-87
2022/08/29 08:51:07;;;;;;;19.02;8.60;;;;;;;21.03;55.88;100251.91;4977971;28;20042;-87
2022/08/29 08:53:40;;;;;;;14.80;7.88;;;;;;;21.16;55.65;100256.56;4961594;28;20074;-87
2022/08/29 08:56:41;;;;;;;17.90;7.97;;;;;;;21.10;55.96;100255.50;4979206;28;20498;-86
2022/08/29 08:59:19;;;;;;;19.27;8.68;;;;;;;21.10;56.64;100263.59;4952901;28;20046;-87
2022/08/29 09:02:10;;;;;;;16.67;9.48;;;;;;;21.24;56.15;100261.84;4948564;28;20058;-87
2022/08/29 09:04:50;;;;;;;19.75;8.85;;;;;;;21.29;56.06;100259.38;4920670;28;20438;-86
2022/08/29 09:07:38;;;;;;;17.80;7.90;;;;;;;21.24;56.25;100256.44;4983446;28;20399;-86
2022/08/29 09:10:20;;;;;;;17.80;8.70;;;;;;;21.32;56.34;100260.84;5017685;28;20145;-86
2022/08/29 09:12:50;;;;;;;15.27;8.77;;;;;;;21.43;56.18;100254.97;4966475;28;20050;-87
2022/08/29 09:15:24;;;;;;;21.05;9.60;;;;;;;21.38;56.04;100244.75;4980176;28;20384;-85
2022/08/29 09:17:59;;;;;;;21.10;9.02;;;;;;;21.42;55.81;100248.72;4920046;28;20043;-86
2022/08/29 09:20:30;;;;;;;16.52;8.48;;;;;;;21.50;55.76;100257.69;4953491;28;20038;-87
2022/08/29 09:23:00;;;;;;;15.75;7.30;;;;;;;21.55;55.36;100261.50;4948752;28;20049;-86
2022/08/29 09:25:29;;;;;;;17.77;8.57;;;;;;;21.61;55.20;100251.78;4984710;28;20100;-87
2022/08/29 09:27:57;;;;;;;17.17;7.78;;;;;;;21.63;55.14;100260.53;4979137;28;20122;-87
2022/08/29 09:30:29;;;;;;;14.02;8.05;;;;;;;21.65;55.03;100258.44;4999290;28;20125;-86
2022/08/29 09:33:03;;;;;;;21.45;8.20;;;;;;;21.67;55.29;100270.72;4983314;28;20046;-86
2022/08/29 09:35:56;;;;;;;19.80;8.45;;;;;;;21.65;55.41;100263.84;4943217;28;20051;-86
2022/08/29 09:38:24;;;;;;;16.85;8.05;;;;;;;21.78;54.94;100260.38;4942318;28;20038;-86
2022/08/29 09:41:09;;;;;;;16.13;6.75;;;;;;;21.72;55.54;100256.59;4982755;28;20050;-86
2022/08/29 09:43:38;;;;;;;22.42;8.32;;;;;;;21.82;55.30;100267.06;4966934;28;20049;-86
2022/08/29 09:46:24;;;;;;;14.77;7.63;;;;;;;21.77;54.36;100256.03;4980772;28;20498;-87
2022/08/29 09:48:56;;;;;;;18.63;7.55;;;;;;;21.85;54.45;100259.41;4978684;28;20502;-86
2022/08/29 09:51:24;;;;;;;18.27;8.23;;;;;;;21.95;54.53;100255.50;4957693;28;20042;-86
2022/08/29 09:53:53;;;;;;;19.85;8.45;;;;;;;21.99;54.23;100248.66;4983818;28;20469;-87
2022/08/29 09:56:23;;;;;;;17.02;7.57;;;;;;;22.02;53.88;100249.09;4951510;28;20081;-86
2022/08/29 09:59:10;;;;;;;18.63;7.60;;;;;;;21.94;53.27;100238.44;4966821;28;20042;-86
2022/08/29 10:01:38;;;;;;;17.63;7.72;;;;;;;22.06;52.71;100249.53;4995430;28;20042;-86
2022/08/29 10:04:06;;;;;;;18.13;8.07;;;;;;;22.08;53.63;100240.19;4980649;28;20414;-86
2022/08/29 10:06:38;;;;;;;19.50;7.95;;;;;;;22.10;53.00;100235.38;4998095;28;20125;-86
2022/08/29 10:09:25;;;;;;;28.23;8.63;;;;;;;22.06;52.75;100236.84;4960795;28;20390;-86
2022/08/29 10:11:59;;;;;;;15.57;7.82;;;;;;;22.17;52.98;100237.31;4971970;28;20054;-85
2022/08/29 10:14:30;;;;;;;12.65;7.22;;;;;;;22.19;52.22;100235.25;4965326;28;20046;-85
2022/08/29 10:19:50;;;;;;;18.08;6.93;;;;;;;22.27;51.77;100237.78;4977937;28;20391;-86
2022/08/29 10:22:28;;;;;;;15.20;7.50;;;;;;;22.28;50.83;100237.56;5015603;28;20050;-86
2022/08/29 10:25:05;;;;;;;17.20;7.50;;;;;;;22.25;51.04;100237.16;4941488;28;20039;-86
2022/08/29 10:27:39;;;;;;;16.77;7.45;;;;;;;22.32;50.69;100232.63;5011985;28;20055;-87
2022/08/29 10:30:13;;;;;;;12.75;6.22;;;;;;;22.32;49.40;100236.16;4955069;28;20520;-86
2022/08/29 10:32:42;;;;;;;23.00;6.80;;;;;;;22.38;49.08;100230.97;4958956;28;20617;-85
2022/08/29 10:35:21;;;;;;;18.60;6.38;;;;;;;22.39;48.31;100228.06;4978477;28;20054;-85
2022/08/29 10:37:52;;;;;;;13.95;7.30;;;;;;;22.47;49.44;100233.28;4982530;28;20034;-86
2022/08/29 10:40:27;;;;;;;19.05;6.72;;;;;;;22.48;48.71;100224.13;4959770;28;20057;-86
2022/08/29 10:43:18;;;;;;;13.32;6.45;;;;;;;22.45;49.03;100226.41;4998893;28;20560;-86
2022/08/29 10:45:55;;;;;;;13.68;6.97;;;;;;;22.59;48.51;100229.97;4937012;28;20046;-87
2022/08/29 10:48:30;;;;;;;14.30;5.90;;;;;;;22.59;48.37;100228.09;4981016;28;20042;-85
2022/08/29 10:51:17;;;;;;;15.70;6.97;;;;;;;22.59;48.51;100227.25;4996092;28;20054;-86
2022/08/29 10:53:49;;;;;;;17.70;7.05;;;;;;;22.65;47.95;100223.75;4921114;28;20047;-86
2022/08/29 10:56:38;;;;;;;14.82;6.32;;;;;;;22.65;48.51;100215.63;4982204;28;20133;-85
2022/08/29 10:59:17;;;;;;;18.25;6.28;;;;;;;22.61;47.18;100231.44;4983022;28;20498;-86
2022/08/29 11:01:48;;;;;;;12.07;6.55;;;;;;;22.65;47.50;100224.59;4996700;28;20546;-85
2022/08/29 11:04:19;;;;;;;16.13;6.72;;;;;;;22.67;47.96;100219.81;4998673;28;20050;-86
2022/08/29 11:06:53;;;;;;;17.13;5.88;;;;;;;22.68;45.66;100226.88;4982855;28;20046;-85
2022/08/29 11:13:13;;;;;;;14.35;6.20;;;;;;;22.75;46.35;100214.19;4950530;28;20133;-85
2022/08/29 11:15:51;;;;;;;12.68;6.32;;;;;;;22.78;46.20;100214.81;4964328;28;20038;-86
2022/08/29 11:18:38;;;;;;;13.75;6.10;;;;;;;22.79;45.28;100214.59;4969988;28;21043;-86
2022/08/29 11:21:23;;;;;;;12.63;5.47;;;;;;;22.86;45.74;100209.19;4964476;28;20038;-85
2022/08/29 11:23:54;;;;;;;10.38;5.53;;;;;;;22.93;46.24;100199.22;4951654;28;20054;-86
2022/08/29 11:26:21;;;;;;;11.38;5.57;;;;;;;22.96;45.88;100198.78;5000912;28;20498;-86
2022/08/29 11:29:11;;;;;;;15.52;6.05;;;;;;;22.91;46.18;100194.00;4986312;28;20038;-86
2022/08/29 11:31:40;;;;;;;12.52;6.82;;;;;;;23.00;46.03;100191.97;4976132;28;20057;-86
2022/08/29 11:34:25;;;;;;;13.13;6.53;;;;;;;22.97;45.71;100184.22;4983383;28;20089;-87
2022/08/29 11:37:23;;;;;;;17.05;5.72;;;;;;;23.01;45.30;100190.91;4985634;28;20406;-87
2022/08/29 11:40:03;;;;;;;12.80;5.95;;;;;;;23.07;45.54;100184.63;4980837;28;20061;-87
2022/08/29 11:42:33;;;;;;;14.90;6.57;;;;;;;23.15;46.02;100183.59;4966677;28;20405;-86
2022/08/29 11:45:24;;;;;;;16.58;6.47;;;;;;;23.20;45.18;100183.78;4969062;28;20046;-86
2022/08/29 11:48:30;;;;;;;15.20;5.97;;;;;;;23.15;45.37;100181.75;4969777;28;20406;-86
2022/08/29 11:50:57;;;;;;;12.85;5.70;;;;;;;23.22;45.46;100180.88;4943890;28;20117;-85
2022/08/29 11:53:32;;;;;;;12.52;6.45;;;;;;;23.24;44.99;100181.53;4999491;28;20054;-85